Aérodrome :
LOGIN :

S'inscrire | Disclaimer

   EN    FR    IT 

 










Légende :    VFR   VFR Marginal   IFR   IFR Intensif   IFR Très Intensif
Visi : 
Plafond : 
>= 8 km
>= 3000ft
5 à 8 km
1000 à 3000 ft
1500m à 5 km
500 à 1000 ft
800 à 1500m
200 à 500 ft
< 800m
< 200 ft
Symboles :   Orages  Brouillard  Fortes neiges  Fortes précipitations  Vent > 20 kt
SIGMETs :   Divers  Orages  Givrage  Turbulence  Onde Orograph.  Cendres Volcan.







- Altitude de l'aérodrome : 12 ft
- Code IATA : NCE
- Voir les cartes d'approche


LFMN - Nice

DERNIER METAR :
  • 232130Z 32006KT CAVOK 08/06 Q1026 NOSIG

METARs EXPIRÉS :
  • 232100Z 33006KT 9999 FEW010 09/06 Q1025 NOSIG
  • 232030Z 33006KT 9999 FEW010 09/06 Q1025 NOSIG
  • 232000Z 34003KT CAVOK 09/07 Q1025 NOSIG
  • 231930Z 32007KT CAVOK 10/07 Q1025 NOSIG
  • 231900Z 32007KT CAVOK 10/07 Q1024 NOSIG

TAF TAF LFMN
Valide du 23 à 21h jusqu'au 25 à 03h UTC


232000Z 2321/2503 33005KT CAVOK
TEMPO 2321/2409 8000 BKN010
BECMG 2410/2412 10005KT
BECMG 2419/2420 34010KT
TEMPO 2418/2503 BKN016
ATIS : +33 4 93 17 21 16
Pas de NOTAMs connus pour ce terrain.



MET'MAP, la Météo Aéronautique d'un coup d'oeil ! - Copyright ORBIFLY Décembre 2007 - Disclaimer

ORBIFLY MET'MAP TEAM :

Programmation & Développement : Alexandra Zaïnal
Conception & Développement : Baudouin d'Aumeries
Co-Programmation & Développement : Marc-Olivier Méhu
Soutien technique & logistique : Manuel Goepfert

Contact : metmap@orbifly.com




SOURCES & CREDITS :

   NOAA